Jersey City — WDB4787 — position and weather

sailwx.info

Track history (hours):
 
Tides and Currents Weather Stations Pressure Air Temp Water Temp Dewpoint Dewpoint Depression Visibility Wind Speed Wind Dir Waves Ship Positions

Jersey City

Owner: PORT IMPERIAL FERRY CORP, WEEHAWKEN, NJ. More information available from US FCC via Universal Licensing System and Coast Guard Vessel Documentation Center.

Last reported at 2017-Oct-17 09:42 UTC. Time now 2017-Oct-20 10:58 UTC.
Position N 40°55' W 073°55'.

Length 27 m.

Type: Passenger vessel. MMSI: 366902340.

Date/timePositionNaut miles runAvg speedWind from/ knotsBaromVisibWave heightAir tempDewpointWater temp
2017-Oct-17 09:42N 40°55' W 073°55'627.0
2017-Oct-17 09:30N 40°50' W 073°58'4 0.4
2017-Oct-16 23:57N 40°47' W 074°01'410.0
2017-Oct-16 23:30N 40°42' W 074°00'3 5.3
2017-Oct-16 23:01N 40°45' W 074°01'0 1.0
2017-Oct-16 22:31N 40°45' W 074°01'3 6.2
2017-Oct-16 22:00N 40°42' W 074°00'3 6.9
2017-Oct-16 21:31N 40°46' W 074°01'3 6.6
2017-Oct-16 21:01N 40°42' W 074°01'1 1.2
2017-Oct-16 20:31N 40°43' W 074°01'4 7.2
2017-Oct-16 20:00N 40°47' W 074°01'4 8.9
2017-Oct-16 19:30N 40°42' W 074°00'4 8.0
2017-Oct-16 19:00N 40°46' W 074°01'0 0.0
2017-Oct-16 14:26N 40°46' W 074°01'1 1.3
2017-Oct-16 13:30N 40°45' W 074°01'2 3.0
2017-Oct-16 13:00N 40°47' W 074°01'3 6.8
2017-Oct-16 12:31N 40°43' W 074°01'1 2.5
2017-Oct-16 12:01N 40°42' W 074°00'3 6.3
2017-Oct-16 11:30N 40°45' W 074°01'1 2.5
2017-Oct-16 11:00N 40°47' W 074°01'4 7.4
2017-Oct-16 10:31N 40°43' W 074°01'4 7.2
2017-Oct-16 10:00N 40°47' W 074°01'0 0.0
2017-Oct-16 09:30N 40°47' W 074°01'0 0.0
2017-Oct-16 09:00N 40°47' W 074°01'  
2017-Oct-13 23:56N 40°47' W 074°01'410.4
2017-Oct-13 23:30N 40°42' W 074°00'3 5.1
2017-Oct-13 23:00N 40°45' W 074°01'0 0.3
2017-Oct-13 22:30N 40°45' W 074°01'2 4.8
2017-Oct-13 22:00N 40°42' W 074°00'4 7.4
2017-Oct-13 21:30N 40°46' W 074°01'3 6.5
2017-Oct-13 21:00N 40°43' W 074°02'0 0.9
2017-Oct-13 20:30N 40°43' W 074°01'4 7.6
2017-Oct-13 20:00N 40°47' W 074°01'4 8.6
2017-Oct-13 19:30N 40°42' W 074°00'4 0.8
2017-Oct-13 14:28N 40°46' W 074°01'4 9.1
2017-Oct-13 14:00N 40°42' W 074°01'3 5.8
2017-Oct-13 13:30N 40°45' W 074°01'2 3.6
2017-Oct-13 12:59N 40°47' W 074°01'4 7.9
2017-Oct-13 12:30N 40°43' W 074°02'1 1.7
2017-Oct-13 12:00N 40°42' W 074°01'4 7.1
2017-Oct-13 11:30N 40°46' W 074°01'1 2.0
2017-Oct-13 11:00N 40°47' W 074°01'4 7.7
2017-Oct-13 10:30N 40°43' W 074°02'4 0.4
2017-Oct-13 00:03N 40°47' W 074°01'0 0.3
2017-Oct-13 00:00N 40°47' W 074°01'4 8.9
2017-Oct-12 23:30N 40°42' W 074°00'2 3.8
2017-Oct-12 23:00N 40°44' W 074°01'2 4.6
2017-Oct-12 22:30N 40°46' W 074°00'4 7.8
2017-Oct-12 22:00N 40°42' W 074°00'4 7.3
2017-Oct-12 21:30N 40°46' W 074°01'3 6.4
2017-Oct-12 21:00N 40°43' W 074°01'0 0.9
2017-Oct-12 20:30N 40°43' W 074°01'4 7.3
2017-Oct-12 20:00N 40°47' W 074°01'4 8.9
2017-Oct-12 19:30N 40°42' W 074°00'4 0.8
2017-Oct-12 14:24N 40°46' W 074°01'411.4
2017-Oct-12 14:00N 40°42' W 074°01'3 5.6
2017-Oct-12 13:30N 40°45' W 074°01'2 3.9
2017-Oct-12 13:00N 40°47' W 074°01'4 6.9
2017-Oct-12 12:30N 40°43' W 074°01'1 2.6
2017-Oct-12 12:00N 40°42' W 074°01'4 7.6
2017-Oct-12 11:30N 40°46' W 074°01'1 2.0
2017-Oct-12 11:00N 40°47' W 074°01'4 8.8
2017-Oct-12 10:31N 40°42' W 074°01'4 0.4
2017-Oct-11 23:59N 40°46' W 074°00'4 8.9
2017-Oct-11 23:30N 40°42' W 074°00'2 3.0
2017-Oct-11 23:00N 40°44' W 074°01'3 6.0
2017-Oct-11 22:30N 40°47' W 074°01'4 8.9
2017-Oct-11 22:00N 40°42' W 074°00'3 6.6
2017-Oct-11 21:31N 40°45' W 074°01'3 6.2
2017-Oct-11 21:00N 40°42' W 074°02'1 1.4
2017-Oct-11 20:30N 40°43' W 074°01'4 7.5
2017-Oct-11 20:00N 40°47' W 074°01'4 8.7
2017-Oct-11 19:30N 40°42' W 074°00'4 0.2
2017-Oct-10 23:57N 40°47' W 074°01'410.1
2017-Oct-10 23:30N 40°42' W 074°00'3 5.4
2017-Oct-10 23:00N 40°45' W 074°01'0 0.3
2017-Oct-10 22:31N 40°45' W 074°01'3 5.4
2017-Oct-10 22:00N 40°42' W 074°00'4 7.4
2017-Oct-10 21:30N 40°46' W 074°01'4 8.2
2017-Oct-10 21:01N 40°42' W 074°01'1 2.4
2017-Oct-10 20:30N 40°43' W 074°01'4 7.2
2017-Oct-10 20:00N 40°47' W 074°01'4 8.8
2017-Oct-10 19:31N 40°42' W 074°00'4 8.1
2017-Oct-10 19:00N 40°46' W 074°01'4 0.8
2017-Oct-10 14:00N 40°42' W 074°00'3 5.7
2017-Oct-10 13:30N 40°45' W 074°01'2 3.1
2017-Oct-10 13:00N 40°47' W 074°01'3 7.0
2017-Oct-10 12:30N 40°43' W 074°01'1 2.9
2017-Oct-10 12:01N 40°42' W 074°01'4 7.5
2017-Oct-10 11:30N 40°46' W 074°01'1 2.0
2017-Oct-10 11:00N 40°47' W 074°01'4 9.1
2017-Oct-10 10:31N 40°42' W 074°01'4 8.6
2017-Oct-10 10:00N 40°47' W 074°01'0 0.0
2017-Oct-10 09:30N 40°47' W 074°01'0 0.0
2017-Oct-09 23:55N 40°47' W 074°01'410.4
2017-Oct-09 23:30N 40°42' W 074°00'3 6.1
2017-Oct-09 23:00N 40°45' W 074°01'1 1.7
2017-Oct-09 22:31N 40°44' W 074°01'2 4.6
2017-Oct-09 22:00N 40°42' W 074°00'4 8.8
2017-Oct-09 21:30N 40°47' W 074°01'5 9.2
2017-Oct-09 21:01N 40°42' W 074°01'1 1.9
2017-Oct-09 20:31N 40°43' W 074°01'4 7.3
2017-Oct-09 20:00N 40°47' W 074°01'4 9.0
2017-Oct-09 19:31N 40°42' W 074°00'4 0.8
2017-Oct-09 14:21N 40°46' W 074°01'412.6
2017-Oct-09 14:01N 40°42' W 074°01'4 7.0
2017-Oct-09 13:30N 40°46' W 074°01'1 2.1
2017-Oct-09 13:00N 40°47' W 074°01'4 7.2
2017-Oct-09 12:31N 40°43' W 074°01'1 2.4
2017-Oct-09 12:01N 40°42' W 074°00'4 7.0
2017-Oct-09 11:31N 40°46' W 074°00'1 1.9
2017-Oct-09 11:00N 40°47' W 074°01'4 8.9
2017-Oct-09 10:31N 40°42' W 074°01'4 4.3
2017-Oct-09 09:28N 40°47' W 074°01'  
Track history (hours):
 
Tides and Currents Weather Stations Pressure Air Temp Water Temp Dewpoint Dewpoint Depression Visibility Wind Speed Wind Dir Waves Ship Positions

Jersey City

Owner: PORT IMPERIAL FERRY CORP, WEEHAWKEN, NJ. More information available from US FCC via Universal Licensing System and Coast Guard Vessel Documentation Center.

Last reported at 2017-Oct-17 09:42 UTC. Time now 2017-Oct-20 10:58 UTC.
Position N 40°55' W 073°55'.

Length 27 m.

Type: Passenger vessel. MMSI: 366902340.

Date/timePositionNaut miles runAvg speedWind from/ knotsBaromVisibWave heightAir tempDewpointWater temp
2017-Oct-17 09:42N 40°55' W 073°55'627.0
2017-Oct-17 09:30N 40°50' W 073°58'4 0.4
2017-Oct-16 23:57N 40°47' W 074°01'410.0
2017-Oct-16 23:30N 40°42' W 074°00'3 5.3
2017-Oct-16 23:01N 40°45' W 074°01'0 1.0
2017-Oct-16 22:31N 40°45' W 074°01'3 6.2
2017-Oct-16 22:00N 40°42' W 074°00'3 6.9
2017-Oct-16 21:31N 40°46' W 074°01'3 6.6
2017-Oct-16 21:01N 40°42' W 074°01'1 1.2
2017-Oct-16 20:31N 40°43' W 074°01'4 7.2
2017-Oct-16 20:00N 40°47' W 074°01'4 8.9
2017-Oct-16 19:30N 40°42' W 074°00'4 8.0
2017-Oct-16 19:00N 40°46' W 074°01'0 0.0
2017-Oct-16 14:26N 40°46' W 074°01'1 1.3
2017-Oct-16 13:30N 40°45' W 074°01'2 3.0
2017-Oct-16 13:00N 40°47' W 074°01'3 6.8
2017-Oct-16 12:31N 40°43' W 074°01'1 2.5
2017-Oct-16 12:01N 40°42' W 074°00'3 6.3
2017-Oct-16 11:30N 40°45' W 074°01'1 2.5
2017-Oct-16 11:00N 40°47' W 074°01'4 7.4
2017-Oct-16 10:31N 40°43' W 074°01'4 7.2
2017-Oct-16 10:00N 40°47' W 074°01'0 0.0
2017-Oct-16 09:30N 40°47' W 074°01'0 0.0
2017-Oct-16 09:00N 40°47' W 074°01'  
2017-Oct-13 23:56N 40°47' W 074°01'410.4
2017-Oct-13 23:30N 40°42' W 074°00'3 5.1
2017-Oct-13 23:00N 40°45' W 074°01'0 0.3
2017-Oct-13 22:30N 40°45' W 074°01'2 4.8
2017-Oct-13 22:00N 40°42' W 074°00'4 7.4
2017-Oct-13 21:30N 40°46' W 074°01'3 6.5
2017-Oct-13 21:00N 40°43' W 074°02'0 0.9
2017-Oct-13 20:30N 40°43' W 074°01'4 7.6
2017-Oct-13 20:00N 40°47' W 074°01'4 8.6
2017-Oct-13 19:30N 40°42' W 074°00'4 0.8
2017-Oct-13 14:28N 40°46' W 074°01'4 9.1
2017-Oct-13 14:00N 40°42' W 074°01'3 5.8
2017-Oct-13 13:30N 40°45' W 074°01'2 3.6
2017-Oct-13 12:59N 40°47' W 074°01'4 7.9
2017-Oct-13 12:30N 40°43' W 074°02'1 1.7
2017-Oct-13 12:00N 40°42' W 074°01'4 7.1
2017-Oct-13 11:30N 40°46' W 074°01'1 2.0
2017-Oct-13 11:00N 40°47' W 074°01'4 7.7
2017-Oct-13 10:30N 40°43' W 074°02'4 0.4
2017-Oct-13 00:03N 40°47' W 074°01'0 0.3
2017-Oct-13 00:00N 40°47' W 074°01'4 8.9
2017-Oct-12 23:30N 40°42' W 074°00'2 3.8
2017-Oct-12 23:00N 40°44' W 074°01'2 4.6
2017-Oct-12 22:30N 40°46' W 074°00'4 7.8
2017-Oct-12 22:00N 40°42' W 074°00'4 7.3
2017-Oct-12 21:30N 40°46' W 074°01'3 6.4
2017-Oct-12 21:00N 40°43' W 074°01'0 0.9
2017-Oct-12 20:30N 40°43' W 074°01'4 7.3
2017-Oct-12 20:00N 40°47' W 074°01'4 8.9
2017-Oct-12 19:30N 40°42' W 074°00'4 0.8
2017-Oct-12 14:24N 40°46' W 074°01'411.4
2017-Oct-12 14:00N 40°42' W 074°01'3 5.6
2017-Oct-12 13:30N 40°45' W 074°01'2 3.9
2017-Oct-12 13:00N 40°47' W 074°01'4 6.9
2017-Oct-12 12:30N 40°43' W 074°01'1 2.6
2017-Oct-12 12:00N 40°42' W 074°01'4 7.6
2017-Oct-12 11:30N 40°46' W 074°01'1 2.0
2017-Oct-12 11:00N 40°47' W 074°01'4 8.8
2017-Oct-12 10:31N 40°42' W 074°01'4 0.4
2017-Oct-11 23:59N 40°46' W 074°00'4 8.9
2017-Oct-11 23:30N 40°42' W 074°00'2 3.0
2017-Oct-11 23:00N 40°44' W 074°01'3 6.0
2017-Oct-11 22:30N 40°47' W 074°01'4 8.9
2017-Oct-11 22:00N 40°42' W 074°00'3 6.6
2017-Oct-11 21:31N 40°45' W 074°01'3 6.2
2017-Oct-11 21:00N 40°42' W 074°02'1 1.4
2017-Oct-11 20:30N 40°43' W 074°01'4 7.5
2017-Oct-11 20:00N 40°47' W 074°01'4 8.7
2017-Oct-11 19:30N 40°42' W 074°00'4 0.2
2017-Oct-10 23:57N 40°47' W 074°01'410.1
2017-Oct-10 23:30N 40°42' W 074°00'3 5.4
2017-Oct-10 23:00N 40°45' W 074°01'0 0.3
2017-Oct-10 22:31N 40°45' W 074°01'3 5.4
2017-Oct-10 22:00N 40°42' W 074°00'4 7.4
2017-Oct-10 21:30N 40°46' W 074°01'4 8.2
2017-Oct-10 21:01N 40°42' W 074°01'1 2.4
2017-Oct-10 20:30N 40°43' W 074°01'4 7.2
2017-Oct-10 20:00N 40°47' W 074°01'4 8.8
2017-Oct-10 19:31N 40°42' W 074°00'4 8.1
2017-Oct-10 19:00N 40°46' W 074°01'4 0.8
2017-Oct-10 14:00N 40°42' W 074°00'3 5.7
2017-Oct-10 13:30N 40°45' W 074°01'2 3.1
2017-Oct-10 13:00N 40°47' W 074°01'3 7.0
2017-Oct-10 12:30N 40°43' W 074°01'1 2.9
2017-Oct-10 12:01N 40°42' W 074°01'4 7.5
2017-Oct-10 11:30N 40°46' W 074°01'1 2.0
2017-Oct-10 11:00N 40°47' W 074°01'4 9.1
2017-Oct-10 10:31N 40°42' W 074°01'4 8.6
2017-Oct-10 10:00N 40°47' W 074°01'0 0.0
2017-Oct-10 09:30N 40°47' W 074°01'0 0.0
2017-Oct-09 23:55N 40°47' W 074°01'410.4
2017-Oct-09 23:30N 40°42' W 074°00'3 6.1
2017-Oct-09 23:00N 40°45' W 074°01'1 1.7
2017-Oct-09 22:31N 40°44' W 074°01'2 4.6
2017-Oct-09 22:00N 40°42' W 074°00'4 8.8
2017-Oct-09 21:30N 40°47' W 074°01'5 9.2
2017-Oct-09 21:01N 40°42' W 074°01'1 1.9
2017-Oct-09 20:31N 40°43' W 074°01'4 7.3
2017-Oct-09 20:00N 40°47' W 074°01'4 9.0
2017-Oct-09 19:31N 40°42' W 074°00'4 0.8
2017-Oct-09 14:21N 40°46' W 074°01'412.6
2017-Oct-09 14:01N 40°42' W 074°01'4 7.0
2017-Oct-09 13:30N 40°46' W 074°01'1 2.1
2017-Oct-09 13:00N 40°47' W 074°01'4 7.2
2017-Oct-09 12:31N 40°43' W 074°01'1 2.4
2017-Oct-09 12:01N 40°42' W 074°00'4 7.0
2017-Oct-09 11:31N 40°46' W 074°00'1 1.9
2017-Oct-09 11:00N 40°47' W 074°01'4 8.9
2017-Oct-09 10:31N 40°42' W 074°01'4 4.3
2017-Oct-09 09:28N 40°47' W 074°01'  

Dump ship's entire track history